Terminal Aerodrome Forecast
Issued by NWS Memphis, TN

Home | Current Version | Previous Version | Text Only | Print | Product List | Glossary On
Versions: 1 2 3 4 5 6 7 8 9 10 11 12 13 14 15 16 17
000
FTUS44 KMEG 290315 AAA
TAFJBR
TAF AMD
KJBR 290315Z 2903/2924 18008KT P6SM SCT050 BKN250
     FM290800 18013G21KT P6SM OVC012
     FM291600 19020G30KT P6SM BKN025
     FM292000 19021G30KT P6SM SCT025 BKN035=

USA.gov is the U.S. government's official web portal to all federal, state and local government web resources and services.